Alsace Manor, Pennsylvania
Current Conditions -  °F | °C
As of 6:54 PM on Sunday 23 Nov 2014 (Local Time) from KRDG Reporting Station
Clear Clear  
Wind Chill: 49°   Ceiling: Unl
Heat Index: 49°   Visibility: 10mi
Dew Point: 29°   Wind: 3mph
Humidity: 46%   Direction: 190°S
Pressure: 30.07"   Gusts: NA
Location:  40.4008°N, 75.8851°W
Report Text: KRDG 232354Z AUTO 19003KT 10SM CLR 09/M02 A3007 RMK AO2 SLP190 T00941017 10161 20094 50000
Loading
Personal Weather Stations






























Interactive Weather Map New forecast layout! Learn more

10-Day Weather Forecast

Advertisements
Track Severe Weather on mobile